메인 페이지
METAR-TAF:

METAR-TAF

공항 :

니노이 아키노 국제공항

마닐라, 필리핀

위도: 14-31N, 경도: 121-00E, 고도: 14m

현재 날씨관측

예보는 53분 전, 20:00시(UTC)에 발표되었습니다.
남서6kt풍과 서남서풍을 오가는
온도 26°C
습도 100%
기압 1005 hPa
시정 10km 이상
고도 2200ft 상공 구름 보통
고도 9000ft 상공 구름 많음

METAR: RPLL 202000Z 22006KT 180V240 9999 SCT022 BKN090 26/26 Q1005 RERA NOSIG RMK A2968

시각: 04:53 (20:53 UTC)

예보

예보는 3 시간 53분 전, 17:00시(UTC)에 발표되었습니다.
예보 대상 시간: 20일 18시부터 21일 24시까지 (UTC)
남서10kt
시정 10km 이상
고도 2300ft 상공 구름 보통
고도 10000ft 상공 구름 많음
일시적
20일 18시부터 20일 24시까지 (UTC)
서남서6kt
시정: 9000m
고도 2300ft 상공 구름 보통
고도 10000ft 상공 흐림
약한소나기
일시적
21일 03시부터 21일 09시까지 (UTC)
서남서16kt, 순간 최대 풍속 26kt
시정: 9000m
고도 2000ft 상공 구름 조금, 적란운.
고도 2200ft 상공 구름 보통
고도 9000ft 상공 흐림
약한소나기

TAF: RPLL 201700Z 2018/2124 23010KT 9999 SCT023 BKN100 TX30/2106Z TN25/2021Z TEMPO 2018/2024 24006KT 9000 -SHRA SCT023 OVC100 TEMPO 2103/2109 25016G26KT 9000 -SHRA FEW020CB SCT022 OVC090

4,000개 이상의 공항 관측 자료 및 예보 (METAR 및 TAF 보고).

지도상에서 검색 가능한 기상관측소가 노란 점과 빨간 점으로 표시되어 있습니다.

기상관측소 명을 보려면 표시 위로 마우스를 이동하세요.

날씨 관측과 예보를 보려면 클릭하세요.

지도 변경 : 확대하려면 엑스 표시가 있는 녹색 버튼, 축소하려면 빼기 표시가 있는 녹색 버튼, 다음 페이지의 지도를 보려면 녹색 화살표를 클릭하세요.


METAR-TAF: